sensor_id;sensor_type;location;lat;lon;timestamp;temperature;humidity
63771;DHT22;60282;43.862;18.430;2023-02-28T00:00:23;0.70;99.90
63771;DHT22;60282;43.862;18.430;2023-02-28T00:02:49;0.80;99.90
63771;DHT22;60282;43.862;18.430;2023-02-28T00:05:16;0.80;99.90
63771;DHT22;60282;43.862;18.430;2023-02-28T00:07:42;0.80;99.90
63771;DHT22;60282;43.862;18.430;2023-02-28T00:10:09;0.80;99.90
63771;DHT22;60282;43.862;18.430;2023-02-28T00:12:36;0.70;99.90
63771;DHT22;60282;43.862;18.430;2023-02-28T00:15:02;0.70;99.90
63771;DHT22;60282;43.862;18.430;2023-02-28T00:17:30;0.70;99.90
63771;DHT22;60282;43.862;18.430;2023-02-28T00:19:55;0.70;99.90
63771;DHT22;60282;43.862;18.430;2023-02-28T00:22:22;0.70;99.90
63771;DHT22;60282;43.862;18.430;2023-02-28T00:24:48;0.70;99.90
63771;DHT22;60282;43.862;18.430;2023-02-28T00:27:13;0.70;99.90
63771;DHT22;60282;43.862;18.430;2023-02-28T00:29:39;0.70;99.90
63771;DHT22;60282;43.862;18.430;2023-02-28T00:32:14;0.70;99.90
63771;DHT22;60282;43.862;18.430;2023-02-28T00:34:44;0.70;99.90
63771;DHT22;60282;43.862;18.430;2023-02-28T00:37:10;0.80;99.90
63771;DHT22;60282;43.862;18.430;2023-02-28T00:39:37;0.80;99.90
63771;DHT22;60282;43.862;18.430;2023-02-28T00:42:03;0.70;99.90
63771;DHT22;60282;43.862;18.430;2023-02-28T00:44:29;0.80;99.90
63771;DHT22;60282;43.862;18.430;2023-02-28T00:46:55;0.80;99.90
63771;DHT22;60282;43.862;18.430;2023-02-28T00:49:21;0.80;99.90
63771;DHT22;60282;43.862;18.430;2023-02-28T00:51:47;0.80;99.90
63771;DHT22;60282;43.862;18.430;2023-02-28T00:54:15;0.90;99.90
63771;DHT22;60282;43.862;18.430;2023-02-28T00:56:40;0.80;99.90
63771;DHT22;60282;43.862;18.430;2023-02-28T00:59:07;0.90;99.90
63771;DHT22;60282;43.862;18.430;2023-02-28T01:01:34;0.90;99.90
63771;DHT22;60282;43.862;18.430;2023-02-28T01:04:00;0.90;99.90
63771;DHT22;60282;43.862;18.430;2023-02-28T01:06:26;0.90;99.90
63771;DHT22;60282;43.862;18.430;2023-02-28T01:08:51;0.90;99.90
63771;DHT22;60282;43.862;18.430;2023-02-28T01:11:17;1.00;99.90
63771;DHT22;60282;43.862;18.430;2023-02-28T01:13:44;0.80;99.90
63771;DHT22;60282;43.862;18.430;2023-02-28T01:16:10;0.90;99.90
63771;DHT22;60282;43.862;18.430;2023-02-28T01:18:35;0.90;99.90
63771;DHT22;60282;43.862;18.430;2023-02-28T01:21:05;0.90;99.90
63771;DHT22;60282;43.862;18.430;2023-02-28T01:23:30;0.90;99.90
63771;DHT22;60282;43.862;18.430;2023-02-28T01:25:56;0.90;99.90
63771;DHT22;60282;43.862;18.430;2023-02-28T01:28:22;0.90;99.90
63771;DHT22;60282;43.862;18.430;2023-02-28T01:30:48;0.90;99.90
63771;DHT22;60282;43.862;18.430;2023-02-28T01:33:14;0.90;99.90
63771;DHT22;60282;43.862;18.430;2023-02-28T01:35:40;0.80;99.90
63771;DHT22;60282;43.862;18.430;2023-02-28T01:38:05;0.80;99.90
63771;DHT22;60282;43.862;18.430;2023-02-28T01:40:31;0.80;99.90
63771;DHT22;60282;43.862;18.430;2023-02-28T01:42:56;0.80;99.90
63771;DHT22;60282;43.862;18.430;2023-02-28T01:45:29;0.70;99.90
63771;DHT22;60282;43.862;18.430;2023-02-28T01:47:56;0.70;99.90
63771;DHT22;60282;43.862;18.430;2023-02-28T01:50:24;0.70;99.90
63771;DHT22;60282;43.862;18.430;2023-02-28T01:52:51;0.70;99.90
63771;DHT22;60282;43.862;18.430;2023-02-28T01:55:19;0.70;99.90
63771;DHT22;60282;43.862;18.430;2023-02-28T01:57:49;0.80;99.90
63771;DHT22;60282;43.862;18.430;2023-02-28T02:00:17;2.60;99.90
63771;DHT22;60282;43.862;18.430;2023-02-28T02:02:45;0.80;99.90
63771;DHT22;60282;43.862;18.430;2023-02-28T02:05:16;0.80;99.90
63771;DHT22;60282;43.862;18.430;2023-02-28T02:07:46;0.80;99.90
63771;DHT22;60282;43.862;18.430;2023-02-28T02:10:15;0.70;99.90
63771;DHT22;60282;43.862;18.430;2023-02-28T02:15:09;0.80;99.90
63771;DHT22;60282;43.862;18.430;2023-02-28T02:17:39;0.90;99.90
63771;DHT22;60282;43.862;18.430;2023-02-28T02:33:20;0.80;99.90
63771;DHT22;60282;43.862;18.430;2023-02-28T02:38:36;0.70;99.90
63771;DHT22;60282;43.862;18.430;2023-02-28T02:41:08;0.70;99.90
63771;DHT22;60282;43.862;18.430;2023-02-28T02:43:40;0.70;99.90
63771;DHT22;60282;43.862;18.430;2023-02-28T02:48:50;0.60;99.90
63771;DHT22;60282;43.862;18.430;2023-02-28T02:51:21;0.70;99.90
63771;DHT22;60282;43.862;18.430;2023-02-28T02:53:55;0.70;99.90
63771;DHT22;60282;43.862;18.430;2023-02-28T02:56:24;1.00;99.90
63771;DHT22;60282;43.862;18.430;2023-02-28T02:58:51;1.80;99.90
63771;DHT22;60282;43.862;18.430;2023-02-28T03:01:19;0.60;99.90
63771;DHT22;60282;43.862;18.430;2023-02-28T03:04:13;0.70;99.90
63771;DHT22;60282;43.862;18.430;2023-02-28T03:06:41;0.70;99.90
63771;DHT22;60282;43.862;18.430;2023-02-28T03:09:07;0.70;99.90
63771;DHT22;60282;43.862;18.430;2023-02-28T03:11:32;0.60;99.90
63771;DHT22;60282;43.862;18.430;2023-02-28T03:26:55;0.60;99.90
63771;DHT22;60282;43.862;18.430;2023-02-28T03:29:30;0.50;99.90
63771;DHT22;60282;43.862;18.430;2023-02-28T03:32:21;0.50;99.90
63771;DHT22;60282;43.862;18.430;2023-02-28T03:34:49;0.50;99.90
63771;DHT22;60282;43.862;18.430;2023-02-28T03:37:19;0.50;99.90
63771;DHT22;60282;43.862;18.430;2023-02-28T03:39:49;0.50;99.90
63771;DHT22;60282;43.862;18.430;2023-02-28T03:42:23;-0.70;99.90
63771;DHT22;60282;43.862;18.430;2023-02-28T03:47:27;0.50;99.90
63771;DHT22;60282;43.862;18.430;2023-02-28T03:49:57;0.50;99.90
63771;DHT22;60282;43.862;18.430;2023-02-28T03:52:26;0.50;99.90
63771;DHT22;60282;43.862;18.430;2023-02-28T03:54:53;0.50;99.90
63771;DHT22;60282;43.862;18.430;2023-02-28T04:00:11;0.40;99.90
63771;DHT22;60282;43.862;18.430;2023-02-28T04:02:37;0.50;99.90
63771;DHT22;60282;43.862;18.430;2023-02-28T04:05:05;0.50;99.90
63771;DHT22;60282;43.862;18.430;2023-02-28T04:07:31;0.50;99.90
63771;DHT22;60282;43.862;18.430;2023-02-28T04:09:57;0.50;99.90
63771;DHT22;60282;43.862;18.430;2023-02-28T04:12:23;0.60;99.90
63771;DHT22;60282;43.862;18.430;2023-02-28T04:14:52;0.60;99.90
63771;DHT22;60282;43.862;18.430;2023-02-28T04:17:17;0.60;99.90
63771;DHT22;60282;43.862;18.430;2023-02-28T04:19:44;0.60;99.90
63771;DHT22;60282;43.862;18.430;2023-02-28T04:22:09;0.60;99.90
63771;DHT22;60282;43.862;18.430;2023-02-28T04:24:35;0.60;99.90
63771;DHT22;60282;43.862;18.430;2023-02-28T04:27:01;0.60;99.90
63771;DHT22;60282;43.862;18.430;2023-02-28T04:29:28;0.60;99.90
63771;DHT22;60282;43.862;18.430;2023-02-28T04:31:55;0.70;99.90
63771;DHT22;60282;43.862;18.430;2023-02-28T04:34:23;0.60;99.90
63771;DHT22;60282;43.862;18.430;2023-02-28T04:36:49;0.60;99.90
63771;DHT22;60282;43.862;18.430;2023-02-28T04:39:16;0.60;99.90
63771;DHT22;60282;43.862;18.430;2023-02-28T04:41:44;0.60;99.90
63771;DHT22;60282;43.862;18.430;2023-02-28T04:44:09;0.50;99.90
63771;DHT22;60282;43.862;18.430;2023-02-28T04:46:35;0.60;99.90
63771;DHT22;60282;43.862;18.430;2023-02-28T04:49:00;0.60;99.90
63771;DHT22;60282;43.862;18.430;2023-02-28T04:51:26;0.60;99.90
63771;DHT22;60282;43.862;18.430;2023-02-28T04:53:52;0.60;99.90
63771;DHT22;60282;43.862;18.430;2023-02-28T04:56:18;0.60;99.90
63771;DHT22;60282;43.862;18.430;2023-02-28T04:58:43;0.60;99.90
63771;DHT22;60282;43.862;18.430;2023-02-28T05:01:17;0.50;99.90
63771;DHT22;60282;43.862;18.430;2023-02-28T05:03:43;0.60;99.90
63771;DHT22;60282;43.862;18.430;2023-02-28T05:06:12;0.60;99.90
63771;DHT22;60282;43.862;18.430;2023-02-28T05:08:38;3.90;99.90
63771;DHT22;60282;43.862;18.430;2023-02-28T05:11:05;0.60;99.90
63771;DHT22;60282;43.862;18.430;2023-02-28T05:13:33;0.60;99.90
63771;DHT22;60282;43.862;18.430;2023-02-28T05:16:01;0.60;99.90
63771;DHT22;60282;43.862;18.430;2023-02-28T05:18:26;0.60;99.90
63771;DHT22;60282;43.862;18.430;2023-02-28T05:20:52;0.60;99.90
63771;DHT22;60282;43.862;18.430;2023-02-28T05:23:17;0.60;99.90
63771;DHT22;60282;43.862;18.430;2023-02-28T05:25:45;0.60;99.90
63771;DHT22;60282;43.862;18.430;2023-02-28T05:28:10;0.60;99.90
63771;DHT22;60282;43.862;18.430;2023-02-28T05:30:36;0.70;99.90
63771;DHT22;60282;43.862;18.430;2023-02-28T05:33:01;0.70;99.90
63771;DHT22;60282;43.862;18.430;2023-02-28T05:35:27;0.70;99.90
63771;DHT22;60282;43.862;18.430;2023-02-28T05:37:53;0.60;99.90
63771;DHT22;60282;43.862;18.430;2023-02-28T05:40:18;-2.30;99.90
63771;DHT22;60282;43.862;18.430;2023-02-28T05:42:45;0.70;99.90
63771;DHT22;60282;43.862;18.430;2023-02-28T05:45:11;0.70;99.90
63771;DHT22;60282;43.862;18.430;2023-02-28T05:47:37;0.70;99.90
63771;DHT22;60282;43.862;18.430;2023-02-28T05:50:03;0.70;99.90
63771;DHT22;60282;43.862;18.430;2023-02-28T05:52:29;0.90;99.90
63771;DHT22;60282;43.862;18.430;2023-02-28T05:54:57;2.80;99.90
63771;DHT22;60282;43.862;18.430;2023-02-28T05:57:23;0.70;99.90
63771;DHT22;60282;43.862;18.430;2023-02-28T05:59:49;0.80;99.90
63771;DHT22;60282;43.862;18.430;2023-02-28T06:02:16;0.80;99.90
63771;DHT22;60282;43.862;18.430;2023-02-28T06:04:42;0.80;99.90
63771;DHT22;60282;43.862;18.430;2023-02-28T06:07:08;0.90;99.90
63771;DHT22;60282;43.862;18.430;2023-02-28T06:09:34;1.30;99.90
63771;DHT22;60282;43.862;18.430;2023-02-28T06:12:01;0.90;99.90
63771;DHT22;60282;43.862;18.430;2023-02-28T06:14:28;0.90;99.90
63771;DHT22;60282;43.862;18.430;2023-02-28T06:16:56;1.00;99.90
63771;DHT22;60282;43.862;18.430;2023-02-28T06:19:22;1.00;99.90
63771;DHT22;60282;43.862;18.430;2023-02-28T06:21:52;1.10;99.90
63771;DHT22;60282;43.862;18.430;2023-02-28T06:24:18;1.10;99.90
63771;DHT22;60282;43.862;18.430;2023-02-28T06:26:44;1.10;99.90
63771;DHT22;60282;43.862;18.430;2023-02-28T06:29:10;1.20;99.90
63771;DHT22;60282;43.862;18.430;2023-02-28T06:31:35;1.20;99.90
63771;DHT22;60282;43.862;18.430;2023-02-28T06:34:01;1.20;99.90
63771;DHT22;60282;43.862;18.430;2023-02-28T06:36:26;1.20;99.90
63771;DHT22;60282;43.862;18.430;2023-02-28T06:38:53;1.10;99.90
63771;DHT22;60282;43.862;18.430;2023-02-28T06:41:21;1.10;99.90
63771;DHT22;60282;43.862;18.430;2023-02-28T06:43:47;1.00;99.90
63771;DHT22;60282;43.862;18.430;2023-02-28T06:46:13;1.00;99.90
63771;DHT22;60282;43.862;18.430;2023-02-28T06:48:39;1.00;99.90
63771;DHT22;60282;43.862;18.430;2023-02-28T06:51:05;1.00;99.90
63771;DHT22;60282;43.862;18.430;2023-02-28T06:53:31;1.00;99.90
63771;DHT22;60282;43.862;18.430;2023-02-28T06:55:57;1.00;99.90
63771;DHT22;60282;43.862;18.430;2023-02-28T06:58:23;-1.40;99.90
63771;DHT22;60282;43.862;18.430;2023-02-28T07:00:50;1.00;99.90
63771;DHT22;60282;43.862;18.430;2023-02-28T07:03:16;1.10;99.90
63771;DHT22;60282;43.862;18.430;2023-02-28T07:05:43;1.10;99.90
63771;DHT22;60282;43.862;18.430;2023-02-28T07:08:09;1.00;99.90
63771;DHT22;60282;43.862;18.430;2023-02-28T07:10:36;1.10;99.90
63771;DHT22;60282;43.862;18.430;2023-02-28T07:13:03;1.10;99.90
63771;DHT22;60282;43.862;18.430;2023-02-28T07:15:29;2.50;99.90
63771;DHT22;60282;43.862;18.430;2023-02-28T07:17:54;1.20;99.90
63771;DHT22;60282;43.862;18.430;2023-02-28T07:20:21;1.20;99.90
63771;DHT22;60282;43.862;18.430;2023-02-28T07:22:48;1.30;99.90
63771;DHT22;60282;43.862;18.430;2023-02-28T07:25:20;1.30;99.90
63771;DHT22;60282;43.862;18.430;2023-02-28T07:27:46;1.30;99.90
63771;DHT22;60282;43.862;18.430;2023-02-28T07:30:12;1.40;99.90
63771;DHT22;60282;43.862;18.430;2023-02-28T07:32:38;1.40;99.90
63771;DHT22;60282;43.862;18.430;2023-02-28T07:35:04;1.50;99.90
63771;DHT22;60282;43.862;18.430;2023-02-28T07:37:29;1.50;99.90
63771;DHT22;60282;43.862;18.430;2023-02-28T07:39:56;1.60;99.90
63771;DHT22;60282;43.862;18.430;2023-02-28T07:42:22;1.60;99.90
63771;DHT22;60282;43.862;18.430;2023-02-28T07:44:48;1.70;99.90
63771;DHT22;60282;43.862;18.430;2023-02-28T07:47:13;1.70;99.90
63771;DHT22;60282;43.862;18.430;2023-02-28T07:49:39;1.80;99.90
63771;DHT22;60282;43.862;18.430;2023-02-28T07:52:05;1.80;99.90
63771;DHT22;60282;43.862;18.430;2023-02-28T07:54:32;1.50;99.90
63771;DHT22;60282;43.862;18.430;2023-02-28T07:56:57;1.90;99.90
63771;DHT22;60282;43.862;18.430;2023-02-28T07:59:23;1.90;99.90
63771;DHT22;60282;43.862;18.430;2023-02-28T08:01:49;1.90;99.90
63771;DHT22;60282;43.862;18.430;2023-02-28T08:04:17;1.90;99.90
63771;DHT22;60282;43.862;18.430;2023-02-28T08:06:43;2.00;99.90
63771;DHT22;60282;43.862;18.430;2023-02-28T08:09:09;2.10;99.90
63771;DHT22;60282;43.862;18.430;2023-02-28T08:11:34;2.10;99.90
63771;DHT22;60282;43.862;18.430;2023-02-28T08:14:00;2.30;99.90
63771;DHT22;60282;43.862;18.430;2023-02-28T08:16:26;2.90;99.90
63771;DHT22;60282;43.862;18.430;2023-02-28T08:18:51;2.40;99.90
63771;DHT22;60282;43.862;18.430;2023-02-28T08:21:17;2.40;99.90
63771;DHT22;60282;43.862;18.430;2023-02-28T08:23:43;2.50;99.90
63771;DHT22;60282;43.862;18.430;2023-02-28T08:26:09;2.40;99.90
63771;DHT22;60282;43.862;18.430;2023-02-28T08:28:35;3.10;99.90
63771;DHT22;60282;43.862;18.430;2023-02-28T08:31:00;2.60;99.90
63771;DHT22;60282;43.862;18.430;2023-02-28T08:33:26;2.80;99.90
63771;DHT22;60282;43.862;18.430;2023-02-28T08:35:53;3.20;99.90
63771;DHT22;60282;43.862;18.430;2023-02-28T08:38:19;2.90;99.90
63771;DHT22;60282;43.862;18.430;2023-02-28T08:40:45;3.10;99.90
63771;DHT22;60282;43.862;18.430;2023-02-28T08:43:10;3.20;99.90
63771;DHT22;60282;43.862;18.430;2023-02-28T08:45:36;3.30;99.90
63771;DHT22;60282;43.862;18.430;2023-02-28T08:48:02;3.60;99.90
63771;DHT22;60282;43.862;18.430;2023-02-28T08:50:27;3.70;99.90
63771;DHT22;60282;43.862;18.430;2023-02-28T08:52:53;3.70;99.90
63771;DHT22;60282;43.862;18.430;2023-02-28T08:55:18;3.50;99.90
63771;DHT22;60282;43.862;18.430;2023-02-28T08:57:44;3.60;99.90
63771;DHT22;60282;43.862;18.430;2023-02-28T09:00:10;3.90;99.90
63771;DHT22;60282;43.862;18.430;2023-02-28T09:02:38;3.50;99.90
63771;DHT22;60282;43.862;18.430;2023-02-28T09:05:04;3.40;99.90
63771;DHT22;60282;43.862;18.430;2023-02-28T09:07:30;3.40;99.90
63771;DHT22;60282;43.862;18.430;2023-02-28T09:09:56;3.50;99.90
63771;DHT22;60282;43.862;18.430;2023-02-28T09:12:23;3.50;99.90
63771;DHT22;60282;43.862;18.430;2023-02-28T09:14:49;3.50;99.90
63771;DHT22;60282;43.862;18.430;2023-02-28T09:17:15;3.50;99.90
63771;DHT22;60282;43.862;18.430;2023-02-28T10:07:40;3.20;99.90
63771;DHT22;60282;43.862;18.430;2023-02-28T10:10:41;3.70;99.90
63771;DHT22;60282;43.862;18.430;2023-02-28T10:13:25;3.50;99.90
63771;DHT22;60282;43.862;18.430;2023-02-28T10:15:56;3.40;99.90
63771;DHT22;60282;43.862;18.430;2023-02-28T10:18:27;4.40;99.90
63771;DHT22;60282;43.862;18.430;2023-02-28T10:20:54;3.90;99.90
63771;DHT22;60282;43.862;18.430;2023-02-28T10:23:28;4.00;99.90
63771;DHT22;60282;43.862;18.430;2023-02-28T10:25:59;4.00;99.90
63771;DHT22;60282;43.862;18.430;2023-02-28T10:28:25;4.10;99.90
63771;DHT22;60282;43.862;18.430;2023-02-28T10:30:53;4.00;99.90
63771;DHT22;60282;43.862;18.430;2023-02-28T10:33:23;3.90;99.90
63771;DHT22;60282;43.862;18.430;2023-02-28T10:35:50;3.80;99.90
63771;DHT22;60282;43.862;18.430;2023-02-28T10:38:22;3.70;99.90
63771;DHT22;60282;43.862;18.430;2023-02-28T10:40:49;3.70;99.90
63771;DHT22;60282;43.862;18.430;2023-02-28T10:43:35;3.60;99.90
63771;DHT22;60282;43.862;18.430;2023-02-28T10:46:13;3.50;99.90
63771;DHT22;60282;43.862;18.430;2023-02-28T10:51:39;3.30;99.90
63771;DHT22;60282;43.862;18.430;2023-02-28T10:54:06;3.30;99.90
63771;DHT22;60282;43.862;18.430;2023-02-28T10:56:40;3.20;99.90
63771;DHT22;60282;43.862;18.430;2023-02-28T10:59:30;3.20;99.90
63771;DHT22;60282;43.862;18.430;2023-02-28T11:02:07;3.20;99.90
63771;DHT22;60282;43.862;18.430;2023-02-28T11:04:48;3.20;99.90
63771;DHT22;60282;43.862;18.430;2023-02-28T11:07:21;3.30;99.90
63771;DHT22;60282;43.862;18.430;2023-02-28T11:09:55;3.30;99.90
63771;DHT22;60282;43.862;18.430;2023-02-28T11:12:48;3.30;99.90
63771;DHT22;60282;43.862;18.430;2023-02-28T11:15:23;3.30;99.90
63771;DHT22;60282;43.862;18.430;2023-02-28T11:20:33;3.30;99.90
63771;DHT22;60282;43.862;18.430;2023-02-28T11:23:01;3.40;99.90
63771;DHT22;60282;43.862;18.430;2023-02-28T11:25:51;3.40;99.90
63771;DHT22;60282;43.862;18.430;2023-02-28T11:28:40;3.40;99.90
63771;DHT22;60282;43.862;18.430;2023-02-28T11:33:45;3.20;99.90
63771;DHT22;60282;43.862;18.430;2023-02-28T11:36:18;3.00;99.90
63771;DHT22;60282;43.862;18.430;2023-02-28T11:38:45;3.20;99.90
63771;DHT22;60282;43.862;18.430;2023-02-28T11:41:26;3.30;99.90
63771;DHT22;60282;43.862;18.430;2023-02-28T11:46:44;3.20;99.90
63771;DHT22;60282;43.862;18.430;2023-02-28T11:52:02;3.20;99.90
63771;DHT22;60282;43.862;18.430;2023-02-28T11:54:46;3.10;99.90
63771;DHT22;60282;43.862;18.430;2023-02-28T12:00:03;3.10;99.90
63771;DHT22;60282;43.862;18.430;2023-02-28T12:05:46;3.10;99.90
63771;DHT22;60282;43.862;18.430;2023-02-28T12:19:46;2.80;99.90
63771;DHT22;60282;43.862;18.430;2023-02-28T12:27:33;2.70;99.90
63771;DHT22;60282;43.862;18.430;2023-02-28T12:32:39;3.00;99.90
63771;DHT22;60282;43.862;18.430;2023-02-28T12:37:38;3.10;99.90
63771;DHT22;60282;43.862;18.430;2023-02-28T12:40:14;3.30;99.90
63771;DHT22;60282;43.862;18.430;2023-02-28T12:42:56;3.40;99.90
63771;DHT22;60282;43.862;18.430;2023-02-28T12:45:27;3.30;99.90
63771;DHT22;60282;43.862;18.430;2023-02-28T12:48:00;4.20;99.90
63771;DHT22;60282;43.862;18.430;2023-02-28T12:50:40;2.80;99.90
63771;DHT22;60282;43.862;18.430;2023-02-28T12:53:12;3.30;99.90
63771;DHT22;60282;43.862;18.430;2023-02-28T12:59:27;3.40;99.90
63771;DHT22;60282;43.862;18.430;2023-02-28T13:10:50;3.60;99.90
63771;DHT22;60282;43.862;18.430;2023-02-28T13:13:36;3.70;99.90
63771;DHT22;60282;43.862;18.430;2023-02-28T13:16:47;3.80;99.90
63771;DHT22;60282;43.862;18.430;2023-02-28T13:19:17;3.80;99.90
63771;DHT22;60282;43.862;18.430;2023-02-28T13:21:46;3.80;99.90
63771;DHT22;60282;43.862;18.430;2023-02-28T13:24:51;3.80;99.90
63771;DHT22;60282;43.862;18.430;2023-02-28T13:27:41;3.80;99.90
63771;DHT22;60282;43.862;18.430;2023-02-28T13:39:03;3.70;99.90
63771;DHT22;60282;43.862;18.430;2023-02-28T13:42:35;3.60;99.90
63771;DHT22;60282;43.862;18.430;2023-02-28T13:47:51;3.40;99.90
63771;DHT22;60282;43.862;18.430;2023-02-28T13:50:41;3.30;99.90
63771;DHT22;60282;43.862;18.430;2023-02-28T13:54:03;3.20;99.90
63771;DHT22;60282;43.862;18.430;2023-02-28T13:56:56;3.20;99.90
63771;DHT22;60282;43.862;18.430;2023-02-28T14:04:45;3.10;99.90
63771;DHT22;60282;43.862;18.430;2023-02-28T14:07:23;3.20;99.90
63771;DHT22;60282;43.862;18.430;2023-02-28T14:10:01;3.10;99.90
63771;DHT22;60282;43.862;18.430;2023-02-28T14:18:18;3.30;99.90
63771;DHT22;60282;43.862;18.430;2023-02-28T14:20:46;3.40;99.90
63771;DHT22;60282;43.862;18.430;2023-02-28T14:26:29;3.20;99.90
63771;DHT22;60282;43.862;18.430;2023-02-28T14:29:12;3.20;99.90
63771;DHT22;60282;43.862;18.430;2023-02-28T14:35:27;3.20;99.90
63771;DHT22;60282;43.862;18.430;2023-02-28T14:37:55;3.10;99.90
63771;DHT22;60282;43.862;18.430;2023-02-28T14:40:31;3.10;99.90
63771;DHT22;60282;43.862;18.430;2023-02-28T14:43:18;3.10;99.90
63771;DHT22;60282;43.862;18.430;2023-02-28T14:45:50;2.90;99.90
63771;DHT22;60282;43.862;18.430;2023-02-28T14:48:19;2.80;99.90
63771;DHT22;60282;43.862;18.430;2023-02-28T14:50:53;2.80;99.90
63771;DHT22;60282;43.862;18.430;2023-02-28T14:53:23;2.90;99.90
63771;DHT22;60282;43.862;18.430;2023-02-28T14:55:53;2.90;99.90
63771;DHT22;60282;43.862;18.430;2023-02-28T14:58:33;2.90;99.90
63771;DHT22;60282;43.862;18.430;2023-02-28T15:01:03;2.90;99.90
63771;DHT22;60282;43.862;18.430;2023-02-28T15:03:47;2.80;99.90
63771;DHT22;60282;43.862;18.430;2023-02-28T15:06:17;2.80;99.90
63771;DHT22;60282;43.862;18.430;2023-02-28T15:08:44;2.80;99.90
63771;DHT22;60282;43.862;18.430;2023-02-28T15:11:28;2.70;99.90
63771;DHT22;60282;43.862;18.430;2023-02-28T15:13:54;2.70;99.90
63771;DHT22;60282;43.862;18.430;2023-02-28T15:16:37;2.70;99.90
63771;DHT22;60282;43.862;18.430;2023-02-28T15:21:49;2.60;99.90
63771;DHT22;60282;43.862;18.430;2023-02-28T15:24:25;2.60;99.90
63771;DHT22;60282;43.862;18.430;2023-02-28T15:27:04;2.50;99.90
63771;DHT22;60282;43.862;18.430;2023-02-28T15:29:44;2.50;99.90
63771;DHT22;60282;43.862;18.430;2023-02-28T15:32:38;2.50;99.90
63771;DHT22;60282;43.862;18.430;2023-02-28T15:35:29;2.50;99.90
63771;DHT22;60282;43.862;18.430;2023-02-28T15:40:43;2.40;99.90
63771;DHT22;60282;43.862;18.430;2023-02-28T15:43:33;2.40;99.90
63771;DHT22;60282;43.862;18.430;2023-02-28T15:46:07;2.40;99.90
63771;DHT22;60282;43.862;18.430;2023-02-28T15:48:54;2.40;99.90
63771;DHT22;60282;43.862;18.430;2023-02-28T15:54:06;2.40;99.90
63771;DHT22;60282;43.862;18.430;2023-02-28T15:56:45;2.30;99.90
63771;DHT22;60282;43.862;18.430;2023-02-28T15:59:26;2.30;99.90
63771;DHT22;60282;43.862;18.430;2023-02-28T16:02:18;2.30;99.90
63771;DHT22;60282;43.862;18.430;2023-02-28T16:07:24;2.30;99.90
63771;DHT22;60282;43.862;18.430;2023-02-28T16:09:50;2.30;99.90
63771;DHT22;60282;43.862;18.430;2023-02-28T16:14:44;2.30;99.90
63771;DHT22;60282;43.862;18.430;2023-02-28T16:17:23;2.30;99.90
63771;DHT22;60282;43.862;18.430;2023-02-28T16:19:49;2.30;99.90
63771;DHT22;60282;43.862;18.430;2023-02-28T16:22:34;2.30;99.90
63771;DHT22;60282;43.862;18.430;2023-02-28T16:24:59;2.30;99.90
63771;DHT22;60282;43.862;18.430;2023-02-28T16:27:32;2.30;99.90
63771;DHT22;60282;43.862;18.430;2023-02-28T16:30:01;3.30;99.90
63771;DHT22;60282;43.862;18.430;2023-02-28T16:32:29;2.30;99.90
63771;DHT22;60282;43.862;18.430;2023-02-28T16:34:55;2.30;99.90
63771;DHT22;60282;43.862;18.430;2023-02-28T16:37:21;2.30;99.90
63771;DHT22;60282;43.862;18.430;2023-02-28T16:39:47;2.30;99.90
63771;DHT22;60282;43.862;18.430;2023-02-28T16:42:29;2.30;99.90
63771;DHT22;60282;43.862;18.430;2023-02-28T16:44:56;2.30;99.90
63771;DHT22;60282;43.862;18.430;2023-02-28T16:47:24;2.30;99.90
63771;DHT22;60282;43.862;18.430;2023-02-28T16:49:52;2.30;99.90
63771;DHT22;60282;43.862;18.430;2023-02-28T16:52:18;2.30;99.90
63771;DHT22;60282;43.862;18.430;2023-02-28T16:54:44;2.30;99.90
63771;DHT22;60282;43.862;18.430;2023-02-28T16:57:18;2.20;99.90
63771;DHT22;60282;43.862;18.430;2023-02-28T16:59:50;2.20;99.90
63771;DHT22;60282;43.862;18.430;2023-02-28T17:02:20;2.20;99.90
63771;DHT22;60282;43.862;18.430;2023-02-28T17:10:28;3.00;99.90
63771;DHT22;60282;43.862;18.430;2023-02-28T17:12:54;2.00;99.90
63771;DHT22;60282;43.862;18.430;2023-02-28T17:15:32;2.10;99.90
63771;DHT22;60282;43.862;18.430;2023-02-28T17:17:57;2.10;99.90
63771;DHT22;60282;43.862;18.430;2023-02-28T17:20:23;2.20;99.90
63771;DHT22;60282;43.862;18.430;2023-02-28T17:22:53;2.00;99.90
63771;DHT22;60282;43.862;18.430;2023-02-28T17:30:19;2.00;99.90
63771;DHT22;60282;43.862;18.430;2023-02-28T17:32:46;2.00;99.90
63771;DHT22;60282;43.862;18.430;2023-02-28T17:35:16;1.90;99.90
63771;DHT22;60282;43.862;18.430;2023-02-28T17:37:42;2.00;99.90
63771;DHT22;60282;43.862;18.430;2023-02-28T17:40:20;2.00;99.90
63771;DHT22;60282;43.862;18.430;2023-02-28T17:42:46;2.00;99.90
63771;DHT22;60282;43.862;18.430;2023-02-28T17:45:13;1.90;99.90
63771;DHT22;60282;43.862;18.430;2023-02-28T17:47:46;1.90;99.90
63771;DHT22;60282;43.862;18.430;2023-02-28T17:50:15;2.10;99.90
63771;DHT22;60282;43.862;18.430;2023-02-28T17:55:09;1.90;99.90
63771;DHT22;60282;43.862;18.430;2023-02-28T17:57:35;1.80;99.90
63771;DHT22;60282;43.862;18.430;2023-02-28T18:00:00;1.80;99.90
63771;DHT22;60282;43.862;18.430;2023-02-28T18:02:36;1.80;99.90
63771;DHT22;60282;43.862;18.430;2023-02-28T18:05:04;2.20;99.90
63771;DHT22;60282;43.862;18.430;2023-02-28T18:12:25;1.80;99.90
63771;DHT22;60282;43.862;18.430;2023-02-28T18:14:51;1.80;99.90
63771;DHT22;60282;43.862;18.430;2023-02-28T18:17:17;1.90;99.90
63771;DHT22;60282;43.862;18.430;2023-02-28T18:19:43;1.90;99.90
63771;DHT22;60282;43.862;18.430;2023-02-28T18:22:09;1.90;99.90
63771;DHT22;60282;43.862;18.430;2023-02-28T18:24:35;1.50;99.90
63771;DHT22;60282;43.862;18.430;2023-02-28T18:27:10;1.90;99.90
63771;DHT22;60282;43.862;18.430;2023-02-28T18:29:36;1.90;99.90
63771;DHT22;60282;43.862;18.430;2023-02-28T18:32:04;1.90;99.90
63771;DHT22;60282;43.862;18.430;2023-02-28T18:34:34;1.90;99.90
63771;DHT22;60282;43.862;18.430;2023-02-28T18:37:01;1.90;99.90
63771;DHT22;60282;43.862;18.430;2023-02-28T18:39:27;1.90;99.90
63771;DHT22;60282;43.862;18.430;2023-02-28T18:44:19;2.00;99.90
63771;DHT22;60282;43.862;18.430;2023-02-28T18:46:47;2.00;99.90
63771;DHT22;60282;43.862;18.430;2023-02-28T18:49:13;1.60;99.90
63771;DHT22;60282;43.862;18.430;2023-02-28T18:51:38;2.00;99.90
63771;DHT22;60282;43.862;18.430;2023-02-28T18:54:09;2.00;99.90
63771;DHT22;60282;43.862;18.430;2023-02-28T18:56:35;2.00;99.90
63771;DHT22;60282;43.862;18.430;2023-02-28T18:59:01;2.00;99.90
63771;DHT22;60282;43.862;18.430;2023-02-28T19:01:28;3.20;99.90
63771;DHT22;60282;43.862;18.430;2023-02-28T19:03:57;2.30;99.90
63771;DHT22;60282;43.862;18.430;2023-02-28T19:06:30;0.10;99.90
63771;DHT22;60282;43.862;18.430;2023-02-28T19:08:58;2.00;99.90
63771;DHT22;60282;43.862;18.430;2023-02-28T19:11:26;2.10;99.90